Carson City, Michigan
Current Conditions -  °F | °C
As of 3:14 AM on Monday 22 Dec 2014 (Local Time) from KAMN Reporting Station
Haze Haze  
Wind Chill: -3°   Ceiling: Unl
Heat Index: -3°   Visibility: 5mi
Dew Point: -4°   Wind: 0mph
Humidity: 92%   Direction: NA
Pressure: 30.11"   Gusts: NA
Location:  43.18°N, 84.85°W
Report Text: KAMN 220814Z AUTO 00000KT 5SM BR CLR M02/M04 A3011 RMK AO2 T10251036
Loading
Personal Weather Stations






























Interactive Weather Map New forecast layout! Learn more

10-Day Weather Forecast

Advertisements
Track Severe Weather on mobile